Terminal Aerodrome Forecast
Issued by NWS Bismarck, ND

Home | Current Version | Previous Version | Graphics & Text | Print | Product List | Glossary On
Versions: 1 2 3 4 5 6 7 8 9 10 11 12 13 14 15 16 17 18 19
000
FTUS43 KBIS 301305 AAA
TAFBIS
TAF AMD
KBIS 301305Z 3013/3112 13005KT P6SM SCT250
     FM301500 17012KT P6SM SCT250
     FM301900 18018G24KT P6SM FEW250
     FM310300 13010KT P6SM SCT150 BKN250
     FM310800 VRB05KT P6SM VCSH SCT040 BKN080 OVC150=

USA.gov is the U.S. government's official web portal to all federal, state and local government web resources and services.